Time;durP1;ratioP1;P1;durP2;ratioP2;P2;SDS_P1;SDS_P2;PMS_P1;PMS_P2;Temp;Humidity;BMP_temperature;BMP_pressure;BME280_temperature;BME280_humidity;BME280_pressure;Samples;Min_cycle;Max_cycle;Signal;HPM_P1;HPM_P2
2022/01/27 00:04:33;;;;;;;37.73;20.10;;;-0.30;99.90;;;;;;4990450;28;20224;-90
2022/01/27 00:06:59;;;;;;;36.40;19.70;;;-0.30;99.90;;;;;;5034910;28;20177;-89
2022/01/27 00:09:42;;;;;;;35.60;19.07;;;-0.30;99.90;;;;;;5035087;28;20190;-89
2022/01/27 00:12:10;;;;;;;33.60;18.63;;;-0.40;99.90;;;;;;5035590;28;20232;-89
2022/01/27 00:14:45;;;;;;;36.60;20.23;;;-0.40;99.90;;;;;;5035335;28;20182;-89
2022/01/27 00:17:14;;;;;;;35.77;19.60;;;-0.40;99.90;;;;;;5034734;28;20198;-89
2022/01/27 00:20:08;;;;;;;33.90;18.60;;;-0.40;99.90;;;;;;5034642;28;20186;-89
2022/01/27 00:22:34;;;;;;;35.40;19.50;;;-0.40;99.90;;;;;;5035131;28;20199;-90
2022/01/27 00:25:02;;;;;;;34.97;18.33;;;-0.40;99.90;;;;;;5034820;28;20174;-89
2022/01/27 00:27:28;;;;;;;37.07;19.33;;;-0.40;99.90;;;;;;5034647;28;20194;-90
2022/01/27 00:29:54;;;;;;;35.30;19.73;;;-0.50;99.90;;;;;;5034665;28;20260;-89
2022/01/27 00:32:20;;;;;;;37.30;20.47;;;-0.50;99.90;;;;;;5034802;28;20703;-89
2022/01/27 00:34:46;;;;;;;38.17;19.30;;;-0.40;99.90;;;;;;5034529;28;20189;-89
2022/01/27 00:37:12;;;;;;;41.03;21.43;;;-0.40;99.90;;;;;;5034697;28;20183;-90
2022/01/27 00:39:38;;;;;;;42.93;21.20;;;-0.40;99.90;;;;;;5034415;28;20266;-90
2022/01/27 00:42:04;;;;;;;40.33;19.73;;;-0.40;99.90;;;;;;5034582;28;20195;-90
2022/01/27 00:44:30;;;;;;;37.93;20.07;;;-0.40;99.90;;;;;;5034413;28;20184;-90
2022/01/27 00:46:56;;;;;;;38.37;20.30;;;-0.40;99.90;;;;;;5034704;28;20182;-90
2022/01/27 00:49:21;;;;;;;37.27;19.77;;;-0.40;99.90;;;;;;5034369;28;20187;-90
2022/01/27 00:51:47;;;;;;;35.70;19.27;;;-0.40;99.90;;;;;;5034512;28;20200;-89
2022/01/27 00:54:20;;;;;;;37.33;20.20;;;-0.40;99.90;;;;;;5034393;28;20182;-90
2022/01/27 00:56:53;;;;;;;39.40;20.33;;;-0.30;99.90;;;;;;5034678;28;20180;-89
2022/01/27 01:02:13;;;;;;;34.90;19.47;;;-0.30;99.90;;;;;;5051191;28;20206;-89
2022/01/27 01:04:43;;;;;;;36.13;18.90;;;-0.30;99.90;;;;;;5015728;28;20727;-89
2022/01/27 01:07:10;;;;;;;36.10;18.83;;;-0.30;99.90;;;;;;5014921;28;20208;-89
2022/01/27 01:15:19;;;;;;;38.03;20.20;;;-0.40;99.90;;;;;;5031308;28;20186;-89
2022/01/27 01:17:59;;;;;;;36.37;18.23;;;-0.40;99.90;;;;;;5014453;28;20211;-90
2022/01/27 01:32:12;;;;;;;36.93;18.97;;;-0.50;99.90;;;;;;5033893;28;20180;-89
2022/01/27 01:36:45;;;;;;;36.83;18.57;;;-0.50;99.90;;;;;;5034315;28;20190;-90
2022/01/27 01:39:12;;;;;;;40.67;20.37;;;-0.50;99.90;;;;;;5017857;28;20208;-89
2022/01/27 01:41:38;;;;;;;39.37;20.27;;;-0.60;99.90;;;;;;5017969;28;20227;-90
2022/01/27 01:44:05;;;;;;;38.63;19.43;;;-0.60;99.90;;;;;;5017921;28;20246;-89
2022/01/27 01:46:31;;;;;;;38.90;20.57;;;-0.60;99.90;;;;;;5017445;28;20179;-90
2022/01/27 01:48:57;;;;;;;36.03;19.17;;;-0.70;99.90;;;;;;5016560;28;20548;-89
2022/01/27 01:51:26;;;;;;;34.47;18.90;;;-0.70;99.90;;;;;;5017645;28;20260;-89
2022/01/27 01:53:53;;;;;;;39.93;19.87;;;-0.80;99.90;;;;;;5017869;28;20190;-89
2022/01/27 01:56:19;;;;;;;37.17;19.27;;;-0.90;99.90;;;;;;5017746;28;20189;-89
2022/01/27 01:58:45;;;;;;;34.47;18.37;;;-0.90;99.90;;;;;;5017627;28;20212;-90
2022/01/27 02:01:11;;;;;;;40.73;19.37;;;-0.90;99.90;;;;;;5017804;28;20184;-89
2022/01/27 02:03:37;;;;;;;41.10;19.87;;;-0.90;99.90;;;;;;5017557;28;20205;-89
2022/01/27 02:06:03;;;;;;;41.03;19.63;;;-0.90;99.90;;;;;;5017616;28;20179;-90
2022/01/27 02:19:30;;;;;;;37.37;18.20;;;-1.00;99.90;;;;;;5033680;28;20214;-89
2022/01/27 02:22:04;;;;;;;40.70;19.20;;;-1.00;99.90;;;;;;5016995;28;20203;-89
2022/01/27 02:24:33;;;;;;;46.90;22.07;;;-1.00;99.90;;;;;;5017200;28;20201;-89
2022/01/27 02:27:00;;;;;;;48.50;23.47;;;-1.10;99.90;;;;;;5017180;28;20191;-90
2022/01/27 02:29:27;;;;;;;46.80;20.57;;;-1.10;99.90;;;;;;5016912;28;20188;-89
2022/01/27 02:31:56;;;;;;;41.43;20.93;;;-1.20;99.90;;;;;;5016855;28;20202;-90
2022/01/27 02:34:23;;;;;;;41.30;20.50;;;-1.20;99.90;;;;;;5016767;28;20198;-90
2022/01/27 02:36:49;;;;;;;40.83;20.60;;;-1.20;99.90;;;;;;5016823;28;20186;-89
2022/01/27 02:40:04;;;;;;;41.37;21.00;;;-1.20;99.90;;;;;;5015311;28;20214;-89
2022/01/27 02:42:37;;;;;;;42.60;19.90;;;-1.20;99.90;;;;;;5016983;28;20198;-90
2022/01/27 02:45:16;;;;;;;41.20;20.30;;;-1.20;99.90;;;;;;5016734;28;20178;-90
2022/01/27 02:47:42;;;;;;;38.70;19.57;;;-1.20;99.90;;;;;;5016312;28;20178;-90
2022/01/27 02:50:08;;;;;;;39.83;18.67;;;-1.20;99.90;;;;;;5016452;28;20182;-90
2022/01/27 02:52:35;;;;;;;39.80;20.07;;;-1.30;99.90;;;;;;5016378;28;20257;-89
2022/01/27 02:55:01;;;;;;;41.43;19.57;;;-1.20;99.90;;;;;;5016511;28;20225;-89
2022/01/27 02:57:30;;;;;;;36.13;18.60;;;-1.30;99.90;;;;;;5016799;28;20709;-89
2022/01/27 02:59:55;;;;;;;35.87;18.07;;;-1.30;99.90;;;;;;5016560;28;20261;-90
2022/01/27 03:02:22;;;;;;;34.93;17.80;;;-1.30;99.90;;;;;;5016134;28;20341;-90
2022/01/27 03:04:48;;;;;;;34.77;18.27;;;-1.40;99.90;;;;;;5016166;28;20269;-90
2022/01/27 03:07:15;;;;;;;35.43;18.43;;;-1.40;99.90;;;;;;5016414;28;20258;-89
2022/01/27 03:09:41;;;;;;;36.10;17.20;;;-1.50;99.90;;;;;;5015996;28;20258;-89
2022/01/27 03:12:10;;;;;;;34.83;18.37;;;-1.50;99.90;;;;;;5016404;28;20202;-90
2022/01/27 03:14:37;;;;;;;36.77;18.20;;;-1.50;99.90;;;;;;5016415;28;20189;-89
2022/01/27 03:17:05;;;;;;;31.93;16.27;;;-1.60;99.90;;;;;;5016220;28;20256;-90
2022/01/27 03:19:32;;;;;;;31.50;16.33;;;-1.60;99.90;;;;;;5015641;28;20214;-89
2022/01/27 03:22:02;;;;;;;33.07;17.13;;;-1.60;99.90;;;;;;5015816;28;20209;-89
2022/01/27 03:24:28;;;;;;;36.63;18.03;;;-1.70;99.90;;;;;;5015391;28;20175;-90
2022/01/27 03:26:55;;;;;;;35.13;17.10;;;-1.70;99.90;;;;;;5016066;28;20209;-90
2022/01/27 03:29:21;;;;;;;36.20;17.57;;;-1.80;99.90;;;;;;5015782;28;20217;-90
2022/01/27 03:31:47;;;;;;;55.07;27.93;;;-1.90;99.90;;;;;;5015833;28;20205;-89
2022/01/27 03:34:14;;;;;;;40.17;19.77;;;-2.00;99.90;;;;;;5015667;28;20281;-89
2022/01/27 03:36:41;;;;;;;37.87;18.63;;;-2.00;99.90;;;;;;5015656;28;20206;-90
2022/01/27 03:39:09;;;;;;;36.30;17.27;;;-2.00;99.90;;;;;;5015814;28;20237;-90
2022/01/27 03:41:37;;;;;;;41.53;18.13;;;-2.00;99.90;;;;;;5015854;28;20178;-90
2022/01/27 03:44:05;;;;;;;33.23;17.80;;;-2.00;99.90;;;;;;5015892;28;20186;-90
2022/01/27 03:46:31;;;;;;;36.67;17.70;;;-2.00;99.90;;;;;;5032162;28;20270;-90
2022/01/27 03:48:57;;;;;;;37.63;18.13;;;-2.00;99.90;;;;;;5015629;28;20182;-89
2022/01/27 03:51:23;;;;;;;36.07;17.07;;;-2.00;99.90;;;;;;5015292;28;20213;-89
2022/01/27 03:53:49;;;;;;;35.23;16.20;;;-2.10;99.90;;;;;;5015310;28;20244;-89
2022/01/27 03:56:15;;;;;;;37.13;17.77;;;-2.10;99.90;;;;;;5015543;28;20183;-90
2022/01/27 03:58:41;;;;;;;34.63;17.10;;;-2.00;99.90;;;;;;5015141;28;20203;-90
2022/01/27 04:01:07;;;;;;;36.03;17.47;;;-2.00;99.90;;;;;;5015468;28;20179;-89
2022/01/27 04:03:37;;;;;;;37.87;18.30;;;-2.10;99.90;;;;;;5021575;28;20211;-90
2022/01/27 04:06:07;;;;;;;34.47;17.23;;;-2.10;99.90;;;;;;5015411;28;20179;-89
2022/01/27 04:08:37;;;;;;;33.53;16.20;;;-2.10;99.90;;;;;;5014941;28;20285;-90
2022/01/27 04:11:04;;;;;;;30.90;17.13;;;-2.10;99.90;;;;;;5015618;28;20187;-90
2022/01/27 04:13:31;;;;;;;32.47;16.87;;;-2.10;99.90;;;;;;5015443;28;20194;-90
2022/01/27 04:15:57;;;;;;;33.60;15.70;;;-2.10;99.90;;;;;;5015257;28;20703;-90
2022/01/27 04:18:23;;;;;;;35.13;17.27;;;-2.10;99.90;;;;;;5014604;28;20309;-90
2022/01/27 04:20:48;;;;;;;33.23;16.67;;;-2.20;99.90;;;;;;5015387;28;20175;-89
2022/01/27 04:23:15;;;;;;;33.33;16.67;;;-2.10;99.90;;;;;;5014921;28;20202;-90
2022/01/27 04:25:41;;;;;;;35.00;18.07;;;-2.10;99.90;;;;;;5015477;28;20179;-89
2022/01/27 04:28:11;;;;;;;35.83;17.63;;;-2.20;99.90;;;;;;5015065;28;20179;-90
2022/01/27 04:30:37;;;;;;;36.47;18.30;;;-2.20;99.90;;;;;;5015314;28;20175;-89
2022/01/27 04:33:05;;;;;;;33.93;17.57;;;-2.20;99.90;;;;;;5014801;28;20222;-90
2022/01/27 04:35:36;;;;;;;34.40;17.37;;;-2.20;99.90;;;;;;5015504;28;20186;-90
2022/01/27 04:46:02;;;;;;;38.80;18.40;;;-2.50;99.90;;;;;;5031703;28;20178;-90
2022/01/27 04:48:34;;;;;;;34.67;17.77;;;-2.50;99.90;;;;;;5015152;28;20337;-90
2022/01/27 04:51:06;;;;;;;37.17;18.20;;;-2.60;99.90;;;;;;5015266;28;20182;-89
2022/01/27 04:53:38;;;;;;;36.43;17.00;;;-2.50;99.90;;;;;;5015002;28;20206;-90
2022/01/27 04:56:04;;;;;;;43.47;20.60;;;-2.60;99.90;;;;;;5015161;28;20182;-89
2022/01/27 04:58:33;;;;;;;39.00;18.47;;;-2.50;99.90;;;;;;5014543;28;20217;-89
2022/01/27 05:01:15;;;;;;;35.87;17.93;;;-2.50;99.90;;;;;;5014734;28;20179;-89
2022/01/27 05:03:53;;;;;;;39.80;19.47;;;-2.60;99.90;;;;;;5017377;28;20216;-90
2022/01/27 05:06:19;;;;;;;34.50;17.43;;;-2.60;99.90;;;;;;5018797;28;20174;-90
2022/01/27 05:08:48;;;;;;;37.10;18.27;;;-2.60;99.90;;;;;;5022253;28;20182;-90
2022/01/27 05:11:22;;;;;;;34.63;16.80;;;-2.70;99.90;;;;;;5028667;28;20189;-90
2022/01/27 05:13:54;;;;;;;35.40;18.03;;;-2.70;99.90;;;;;;5055085;28;20197;-90
2022/01/27 05:16:20;;;;;;;39.30;19.73;;;-2.70;99.90;;;;;;5034851;28;20273;-90
2022/01/27 05:18:46;;;;;;;40.20;20.03;;;-2.70;99.90;;;;;;5029865;28;20249;-90
2022/01/27 05:21:12;;;;;;;36.67;17.20;;;-2.70;99.90;;;;;;5037088;28;20178;-90
2022/01/27 05:23:38;;;;;;;34.00;17.20;;;-2.70;99.90;;;;;;5028195;28;20194;-90
2022/01/27 05:26:04;;;;;;;34.73;17.47;;;-2.70;99.90;;;;;;5035645;28;20177;-90
2022/01/27 05:28:30;;;;;;;35.27;16.20;;;-2.70;99.90;;;;;;5033935;28;20189;-89
2022/01/27 05:30:56;;;;;;;37.53;18.10;;;-2.70;99.90;;;;;;5030703;28;20253;-90
2022/01/27 05:33:23;;;;;;;32.03;16.27;;;-2.70;99.90;;;;;;5047028;28;20344;-90
2022/01/27 05:35:49;;;;;;;36.40;17.57;;;-2.80;99.90;;;;;;5050038;28;20185;-90
2022/01/27 05:38:16;;;;;;;33.97;16.23;;;-2.90;99.90;;;;;;5037750;28;20202;-90
2022/01/27 05:40:44;;;;;;;34.63;17.37;;;-2.90;99.90;;;;;;5041903;28;20198;-90
2022/01/27 05:43:11;;;;;;;36.00;17.23;;;-3.00;99.90;;;;;;5021431;28;20564;-89
2022/01/27 05:45:38;;;;;;;35.40;17.37;;;-3.00;99.90;;;;;;5018090;28;20179;-90
2022/01/27 05:48:04;;;;;;;36.30;15.83;;;-3.00;99.90;;;;;;5017916;28;20186;-90
2022/01/27 05:50:31;;;;;;;35.17;17.53;;;-3.00;99.90;;;;;;5017957;28;20186;-89
2022/01/27 05:52:57;;;;;;;38.43;17.97;;;-3.00;99.90;;;;;;5017479;28;20206;-90
2022/01/27 05:55:23;;;;;;;37.13;18.17;;;-3.10;99.90;;;;;;5018150;28;20244;-90
2022/01/27 05:57:49;;;;;;;37.30;17.57;;;-3.10;99.90;;;;;;5017315;28;20301;-90
2022/01/27 06:00:17;;;;;;;34.37;17.60;;;-3.00;99.90;;;;;;5018426;28;20179;-90
2022/01/27 06:02:43;;;;;;;36.93;17.97;;;-3.00;99.90;;;;;;5020402;28;20197;-90
2022/01/27 06:05:09;;;;;;;38.07;19.27;;;-3.00;99.90;;;;;;5032366;28;20265;-90
2022/01/27 06:07:35;;;;;;;36.63;19.03;;;-3.00;99.90;;;;;;5034511;28;20175;-90
2022/01/27 06:10:02;;;;;;;37.90;19.97;;;-3.10;99.90;;;;;;5034544;28;20178;-90
2022/01/27 06:12:29;;;;;;;39.00;19.90;;;-3.10;99.90;;;;;;5034471;28;20313;-90
2022/01/27 06:14:55;;;;;;;41.27;20.30;;;-3.10;99.90;;;;;;5034105;28;20175;-91
2022/01/27 06:17:21;;;;;;;38.63;19.53;;;-3.10;99.90;;;;;;5034565;28;20175;-89
2022/01/27 06:19:47;;;;;;;41.37;21.00;;;-3.00;99.90;;;;;;5034139;28;20206;-89
2022/01/27 06:22:27;;;;;;;48.37;24.50;;;-3.00;99.90;;;;;;5034454;28;20297;-89
2022/01/27 06:24:53;;;;;;;41.37;22.23;;;-3.00;99.90;;;;;;5034339;28;20627;-89
2022/01/27 06:27:19;;;;;;;39.27;19.77;;;-3.10;99.90;;;;;;5034242;28;20170;-89
2022/01/27 06:29:44;;;;;;;39.47;20.70;;;-3.10;99.90;;;;;;5034261;28;20236;-89
2022/01/27 06:32:11;;;;;;;38.90;19.47;;;-3.10;99.90;;;;;;5034308;28;20352;-89
2022/01/27 06:34:37;;;;;;;39.50;20.20;;;-3.20;99.90;;;;;;5034086;28;20213;-89
2022/01/27 06:37:03;;;;;;;40.83;19.73;;;-3.20;99.90;;;;;;5034393;28;20436;-89
2022/01/27 06:39:29;;;;;;;38.50;19.80;;;-3.20;99.90;;;;;;5034242;28;20293;-89
2022/01/27 06:41:55;;;;;;;36.90;19.10;;;-3.20;99.90;;;;;;5034552;28;20233;-89
2022/01/27 06:44:21;;;;;;;39.03;18.73;;;-3.20;99.90;;;;;;5034285;28;20202;-91
2022/01/27 06:46:47;;;;;;;37.10;18.23;;;-3.30;99.90;;;;;;5033953;28;20182;-89
2022/01/27 06:49:16;;;;;;;31.30;16.17;;;-3.40;99.90;;;;;;5033417;28;20186;-89
2022/01/27 06:51:44;;;;;;;37.43;17.87;;;-3.40;99.90;;;;;;5033567;28;20253;-88
2022/01/27 06:54:10;;;;;;;37.03;18.10;;;-3.40;99.90;;;;;;5033808;28;20658;-89
2022/01/27 06:56:36;;;;;;;40.13;17.70;;;-3.40;99.90;;;;;;5032133;28;20182;-89
2022/01/27 06:59:02;;;;;;;38.00;19.23;;;-3.30;99.90;;;;;;5033655;28;20614;-89
2022/01/27 07:01:31;;;;;;;39.50;19.13;;;-3.30;99.90;;;;;;5033652;28;20178;-89
2022/01/27 07:03:57;;;;;;;41.80;19.37;;;-3.30;99.90;;;;;;5033627;28;20178;-88
2022/01/27 07:06:23;;;;;;;40.80;19.53;;;-3.40;99.90;;;;;;5034092;28;20174;-90
2022/01/27 07:08:48;;;;;;;41.77;20.30;;;-3.40;99.90;;;;;;5033190;28;20202;-89
2022/01/27 07:11:14;;;;;;;41.87;19.93;;;-3.30;99.90;;;;;;5035079;28;20182;-88
2022/01/27 07:13:40;;;;;;;45.63;19.77;;;-3.40;99.90;;;;;;5036399;28;20199;-89
2022/01/27 07:16:07;;;;;;;41.20;19.77;;;-3.40;99.90;;;;;;5035356;28;20252;-89
2022/01/27 07:18:34;;;;;;;40.27;19.83;;;-3.30;99.90;;;;;;5035207;28;20228;-89
2022/01/27 07:21:00;;;;;;;43.53;20.30;;;-3.30;99.90;;;;;;5037997;28;20183;-90
2022/01/27 07:23:26;;;;;;;37.87;20.00;;;-3.20;99.90;;;;;;5033817;28;20202;-89
2022/01/27 07:25:52;;;;;;;37.87;18.10;;;-3.20;99.90;;;;;;5032307;28;20179;-89
2022/01/27 07:28:18;;;;;;;43.97;20.10;;;-3.10;99.90;;;;;;5032520;28;20179;-89
2022/01/27 07:30:44;;;;;;;38.40;18.57;;;-3.00;99.90;;;;;;5032346;28;20183;-89
2022/01/27 07:33:10;;;;;;;43.63;21.17;;;-3.00;99.90;;;;;;5032391;28;20237;-89
2022/01/27 07:35:36;;;;;;;42.50;18.27;;;-3.00;99.90;;;;;;5032396;28;20248;-89
2022/01/27 07:38:02;;;;;;;42.53;20.70;;;-3.00;99.90;;;;;;5032056;28;20213;-89
2022/01/27 07:40:29;;;;;;;38.77;20.00;;;-3.10;99.90;;;;;;5032501;28;20179;-89
2022/01/27 07:42:57;;;;;;;38.20;18.83;;;-3.10;99.90;;;;;;5032035;28;20198;-89
2022/01/27 07:45:23;;;;;;;39.23;19.57;;;-3.10;99.90;;;;;;5015678;28;20179;-89
2022/01/27 07:47:49;;;;;;;36.63;18.50;;;-3.00;99.90;;;;;;5032304;28;20196;-89
2022/01/27 07:50:16;;;;;;;38.73;18.80;;;-3.00;99.90;;;;;;5032007;28;20261;-89
2022/01/27 07:52:42;;;;;;;33.67;18.93;;;-3.00;99.90;;;;;;5015857;28;20206;-89
2022/01/27 07:55:09;;;;;;;34.83;18.13;;;-2.90;99.90;;;;;;5031954;28;20174;-90
2022/01/27 07:57:35;;;;;;;38.93;20.17;;;-2.90;99.90;;;;;;5031922;28;20274;-90
2022/01/27 08:00:01;;;;;;;42.23;21.50;;;-2.80;99.90;;;;;;5031979;28;20262;-89
2022/01/27 08:02:27;;;;;;;41.10;20.40;;;-2.80;99.90;;;;;;5032833;28;20207;-90
2022/01/27 08:05:02;;;;;;;37.70;19.33;;;-2.70;99.90;;;;;;5033962;28;20245;-88
2022/01/27 08:07:28;;;;;;;35.83;18.97;;;-2.70;99.90;;;;;;5018863;28;20188;-88
2022/01/27 08:10:01;;;;;;;35.37;18.03;;;-2.70;99.90;;;;;;5029388;28;20182;-88
2022/01/27 08:12:27;;;;;;;37.30;18.50;;;-2.70;99.90;;;;;;5027085;28;20267;-88
2022/01/27 08:15:30;;;;;;;34.40;18.20;;;-2.60;99.90;;;;;;5051939;28;20174;-88
2022/01/27 08:17:56;;;;;;;33.63;18.23;;;-2.60;99.90;;;;;;5035411;28;20205;-88
2022/01/27 08:20:22;;;;;;;41.10;20.63;;;-2.60;99.90;;;;;;5035588;28;20499;-88
2022/01/27 08:22:50;;;;;;;40.37;19.27;;;-2.50;99.90;;;;;;5034962;28;20201;-91
2022/01/27 08:25:16;;;;;;;37.67;18.50;;;-2.50;99.90;;;;;;5035281;28;20173;-90
2022/01/27 08:27:45;;;;;;;35.93;18.43;;;-2.50;99.90;;;;;;5034773;28;20178;-90
2022/01/27 08:30:16;;;;;;;34.10;19.20;;;-2.40;99.90;;;;;;5035017;28;20227;-90
2022/01/27 08:32:56;;;;;;;34.17;19.37;;;-2.30;99.90;;;;;;5032009;28;20222;-90
2022/01/27 08:35:22;;;;;;;37.00;19.60;;;-2.30;99.90;;;;;;5015458;28;20260;-90
2022/01/27 08:37:49;;;;;;;36.47;18.67;;;-2.20;99.90;;;;;;5017962;28;20178;-90
2022/01/27 08:40:16;;;;;;;36.93;19.83;;;-2.20;99.90;;;;;;5019067;28;20175;-90
2022/01/27 08:42:43;;;;;;;40.73;21.87;;;-2.10;99.90;;;;;;5018892;28;20202;-90
2022/01/27 08:45:15;;;;;;;39.33;19.70;;;-2.00;99.90;;;;;;5019250;28;20181;-90
2022/01/27 08:47:43;;;;;;;33.50;19.03;;;-2.00;99.90;;;;;;5019486;28;20175;-90
2022/01/27 08:50:10;;;;;;;33.27;19.07;;;-2.00;99.90;;;;;;5019193;28;20654;-90
2022/01/27 08:52:37;;;;;;;35.87;19.37;;;-2.00;99.90;;;;;;5018641;28;20194;-90
2022/01/27 08:55:04;;;;;;;37.97;19.90;;;-2.00;99.90;;;;;;5019038;28;20274;-90
2022/01/27 08:57:30;;;;;;;35.23;19.60;;;-1.90;99.90;;;;;;5018906;28;20261;-90
2022/01/27 08:59:56;;;;;;;39.40;20.43;;;-1.90;99.90;;;;;;5018750;28;20325;-90
2022/01/27 09:02:22;;;;;;;39.00;19.97;;;-1.80;99.90;;;;;;5018748;28;20199;-90
2022/01/27 09:04:49;;;;;;;39.93;20.07;;;-1.70;99.90;;;;;;5038683;28;20231;-90
2022/01/27 09:07:15;;;;;;;39.30;20.63;;;-1.60;99.90;;;;;;5034820;28;20186;-90
2022/01/27 09:09:45;;;;;;;41.10;21.83;;;-1.60;99.90;;;;;;5018718;28;20213;-90
2022/01/27 09:12:12;;;;;;;39.67;19.97;;;-1.60;99.90;;;;;;5022769;28;20364;-90
2022/01/27 09:14:41;;;;;;;41.60;21.47;;;-1.50;99.90;;;;;;5054742;28;20269;-90
2022/01/27 09:17:12;;;;;;;40.70;20.80;;;-1.40;99.90;;;;;;5043834;28;20216;-90
2022/01/27 09:19:41;;;;;;;43.70;20.93;;;-1.20;99.90;;;;;;5051084;28;20220;-89
2022/01/27 09:22:14;;;;;;;37.97;19.53;;;-1.10;99.90;;;;;;5051596;28;20190;-88
2022/01/27 09:24:54;;;;;;;38.47;19.43;;;-1.00;99.90;;;;;;5051588;28;20168;-89
2022/01/27 09:27:20;;;;;;;36.60;19.03;;;-0.80;99.90;;;;;;5051438;28;20163;-89
2022/01/27 09:29:47;;;;;;;35.17;18.60;;;-0.70;99.90;;;;;;5051160;28;20540;-89
2022/01/27 09:32:15;;;;;;;39.13;20.50;;;-0.50;99.90;;;;;;5051119;28;20683;-89
2022/01/27 09:34:43;;;;;;;35.83;18.53;;;-0.40;99.90;;;;;;5051101;28;20185;-89
2022/01/27 09:37:09;;;;;;;36.00;18.80;;;-0.30;99.90;;;;;;5051387;28;20207;-89
2022/01/27 09:39:35;;;;;;;35.97;19.03;;;-0.20;99.90;;;;;;5050843;28;20218;-89
2022/01/27 09:42:20;;;;;;;37.77;20.00;;;-0.10;99.90;;;;;;5051053;28;20200;-89
2022/01/27 09:44:52;;;;;;;35.67;19.00;;;-0.10;99.90;;;;;;5050866;28;20205;-89
2022/01/27 09:47:19;;;;;;;37.23;18.93;;;0.00;99.90;;;;;;5050773;28;20181;-89
2022/01/27 09:49:52;;;;;;;37.20;19.00;;;0.10;99.90;;;;;;5050380;28;20187;-89
2022/01/27 09:52:19;;;;;;;38.63;18.77;;;0.00;99.90;;;;;;5051052;28;20203;-89
2022/01/27 09:54:45;;;;;;;34.17;18.57;;;0.00;99.90;;;;;;5050943;28;20190;-89
2022/01/27 09:57:17;;;;;;;33.43;18.50;;;0.10;99.90;;;;;;5050860;28;20197;-89
2022/01/27 09:59:44;;;;;;;36.27;19.03;;;0.10;99.90;;;;;;5050680;28;20204;-89
2022/01/27 10:02:16;;;;;;;38.80;19.33;;;0.20;99.90;;;;;;5050789;28;20200;-89
2022/01/27 10:04:51;;;;;;;36.87;19.70;;;0.20;99.90;;;;;;5050706;28;20255;-89
2022/01/27 10:07:22;;;;;;;29.40;17.47;;;0.40;99.90;;;;;;5050900;28;20164;-89
2022/01/27 10:10:06;;;;;;;37.37;19.10;;;0.40;99.90;;;;;;5050631;28;20188;-89
2022/01/27 10:12:37;;;;;;;33.60;18.37;;;0.50;99.90;;;;;;5050701;28;20195;-89
2022/01/27 10:15:13;;;;;;;35.27;18.40;;;0.60;99.90;;;;;;5033752;28;20163;-89
2022/01/27 10:18:08;;;;;;;31.90;16.73;;;0.70;99.90;;;;;;5049979;28;20229;-89
2022/01/27 10:20:36;;;;;;;32.77;17.77;;;0.60;99.90;;;;;;5033686;28;20213;-89
2022/01/27 10:23:22;;;;;;;34.37;18.03;;;0.50;99.90;;;;;;5049298;28;20207;-89
2022/01/27 10:25:57;;;;;;;35.00;17.17;;;0.40;99.90;;;;;;5050369;28;20185;-89
2022/01/27 10:31:19;;;;;;;37.50;19.33;;;0.50;99.90;;;;;;5033914;28;20194;-89
2022/01/27 10:34:02;;;;;;;32.87;17.27;;;0.60;99.90;;;;;;5050151;28;20212;-89
2022/01/27 10:36:39;;;;;;;34.93;18.47;;;0.60;99.90;;;;;;5050078;28;20187;-89
2022/01/27 10:39:17;;;;;;;29.40;15.90;;;0.60;99.90;;;;;;5049747;28;20266;-88
2022/01/27 10:42:08;;;;;;;32.03;16.93;;;0.60;99.90;;;;;;5050064;28;20200;-89
2022/01/27 10:44:38;;;;;;;31.80;17.10;;;0.60;99.90;;;;;;5049679;28;20176;-89
2022/01/27 10:47:15;;;;;;;32.13;17.03;;;0.50;99.90;;;;;;5049681;28;20178;-89
2022/01/27 10:49:52;;;;;;;31.57;16.20;;;0.50;99.90;;;;;;5049471;28;20211;-89
2022/01/27 10:52:28;;;;;;;31.43;16.97;;;0.40;99.90;;;;;;5049413;28;20209;-89
2022/01/27 10:55:00;;;;;;;31.17;16.33;;;0.50;99.90;;;;;;5049854;28;20269;-89
2022/01/27 10:57:26;;;;;;;31.37;16.80;;;0.80;99.90;;;;;;5049655;28;20268;-89
2022/01/27 11:00:10;;;;;;;30.47;17.20;;;0.90;99.90;;;;;;5048681;28;20218;-88
2022/01/27 11:03:03;;;;;;;37.87;17.27;;;1.10;99.90;;;;;;5016546;28;20241;-89
2022/01/27 11:05:31;;;;;;;32.07;17.30;;;1.20;99.90;;;;;;5049593;28;20166;-89
2022/01/27 11:07:58;;;;;;;27.97;16.37;;;1.20;99.90;;;;;;5048944;28;20272;-89
2022/01/27 11:10:24;;;;;;;31.17;16.57;;;1.30;99.90;;;;;;5049710;28;20317;-89
2022/01/27 11:12:53;;;;;;;34.00;17.13;;;1.40;99.90;;;;;;5049298;28;20194;-90
2022/01/27 11:15:21;;;;;;;30.70;16.63;;;1.60;99.90;;;;;;5049437;28;20170;-89
2022/01/27 11:17:53;;;;;;;28.50;16.23;;;1.90;99.90;;;;;;5036554;28;20184;-89
2022/01/27 11:20:25;;;;;;;34.37;16.37;;;2.10;99.90;;;;;;5025703;28;20171;-88
2022/01/27 11:24:03;;;;;;;32.50;16.43;;;2.10;99.90;;;;;;5016573;28;20277;-89
2022/01/27 11:25:51;;;;;;;32.10;15.63;;;2.10;99.90;;;;;;5040537;28;20217;-89
2022/01/27 11:28:20;;;;;;;29.57;15.77;;;2.30;99.90;;;;;;5032593;28;20185;-80
2022/01/27 11:31:11;;;;;;;27.13;15.77;;;2.30;99.90;;;;;;5032713;28;20185;-89
2022/01/27 11:33:43;;;;;;;34.43;17.57;;;2.30;99.90;;;;;;5032070;28;20218;-89
2022/01/27 11:36:19;;;;;;;31.20;16.63;;;2.30;99.90;;;;;;5033026;28;20170;-90
2022/01/27 11:38:46;;;;;;;32.87;17.10;;;2.30;99.90;;;;;;5023038;28;20231;-89
2022/01/27 11:41:33;;;;;;;29.97;16.90;;;2.20;99.90;;;;;;5036081;28;20174;-89
2022/01/27 11:44:28;;;;;;;28.90;16.40;;;2.30;99.90;;;;;;5035655;28;20178;-89
2022/01/27 11:47:10;;;;;;;30.40;16.50;;;2.10;99.90;;;;;;5035859;28;20174;-89
2022/01/27 11:49:46;;;;;;;32.13;16.03;;;2.20;99.90;;;;;;5035060;28;20182;-89
2022/01/27 11:52:41;;;;;;;31.13;16.30;;;2.10;99.90;;;;;;5035053;28;20208;-89
2022/01/27 11:55:25;;;;;;;36.63;17.43;;;2.20;99.90;;;;;;5027915;28;20568;-89
2022/01/27 11:58:16;;;;;;;28.77;14.67;;;2.30;99.90;;;;;;5035018;28;20272;-88
2022/01/27 12:01:21;;;;;;;34.30;17.00;;;2.30;99.90;;;;;;5035406;28;20216;-89
2022/01/27 12:04:25;;;;;;;26.50;15.43;;;2.40;99.90;;;;;;5028666;28;20205;-89
2022/01/27 12:06:51;;;;;;;26.47;14.67;;;2.50;99.90;;;;;;5038127;28;20202;-89
2022/01/27 12:09:20;;;;;;;25.37;13.50;;;2.60;99.90;;;;;;5037436;28;20213;-89
2022/01/27 12:11:55;;;;;;;19.40;10.07;;;2.60;99.90;;;;;;5035178;28;20197;-89
2022/01/27 12:15:10;;;;;;;13.93;8.13;;;2.60;99.90;;;;;;5035481;28;20181;-89
2022/01/27 12:17:36;;;;;;;16.80;9.27;;;2.70;99.90;;;;;;5033899;28;20533;-90
2022/01/27 12:20:08;;;;;;;19.67;10.70;;;2.80;99.90;;;;;;5051961;28;20229;-89
2022/01/27 12:22:44;;;;;;;20.40;11.00;;;2.90;99.90;;;;;;5035283;28;20198;-89
2022/01/27 12:25:12;;;;;;;25.33;12.30;;;3.00;99.90;;;;;;5035689;28;20208;-89
2022/01/27 12:27:39;;;;;;;19.80;11.23;;;2.90;99.90;;;;;;5035353;28;20178;-89
2022/01/27 12:30:09;;;;;;;25.67;12.93;;;3.00;99.90;;;;;;5035318;28;20185;-89
2022/01/27 12:32:36;;;;;;;26.80;12.30;;;2.90;99.90;;;;;;5035234;28;20280;-89
2022/01/27 12:35:14;;;;;;;19.53;10.37;;;2.90;99.90;;;;;;5035685;28;20208;-89
2022/01/27 12:37:42;;;;;;;21.40;10.33;;;2.90;99.90;;;;;;5035383;28;20170;-89
2022/01/27 12:40:18;;;;;;;18.87;10.73;;;2.90;99.90;;;;;;5035251;28;20285;-89
2022/01/27 12:42:57;;;;;;;19.43;10.37;;;3.10;99.90;;;;;;5035139;28;20198;-89
2022/01/27 12:45:29;;;;;;;19.07;9.90;;;3.20;99.90;;;;;;5033250;28;20182;-89
2022/01/27 12:48:05;;;;;;;18.93;11.20;;;3.30;99.90;;;;;;5040743;28;20194;-89
2022/01/27 12:50:34;;;;;;;17.33;9.80;;;3.40;99.90;;;;;;5031807;28;20186;-89
2022/01/27 12:53:03;;;;;;;18.13;10.03;;;3.40;99.90;;;;;;5041955;28;20190;-89
2022/01/27 12:55:40;;;;;;;22.33;10.60;;;3.40;99.90;;;;;;5052214;28;20245;-89
2022/01/27 12:58:08;;;;;;;18.97;10.00;;;3.40;99.90;;;;;;5047950;28;20204;-83
2022/01/27 13:00:48;;;;;;;20.77;10.60;;;3.50;99.90;;;;;;5047496;28;20270;-91
2022/01/27 13:03:14;;;;;;;17.60;9.40;;;3.60;99.90;;;;;;5022766;28;20245;-91
2022/01/27 13:05:47;;;;;;;19.13;10.00;;;3.70;99.90;;;;;;5015155;28;20277;-91
2022/01/27 13:08:15;;;;;;;16.30;9.10;;;3.90;99.90;;;;;;5025727;28;20186;-90
2022/01/27 13:10:58;;;;;;;18.63;9.40;;;4.10;99.90;;;;;;5042105;28;20175;-91
2022/01/27 13:13:35;;;;;;;15.80;8.70;;;4.10;99.90;;;;;;5047948;28;20207;-90
2022/01/27 13:16:08;;;;;;;19.00;9.37;;;4.10;99.90;;;;;;5048338;28;20209;-90
2022/01/27 13:18:46;;;;;;;16.73;9.13;;;4.10;99.90;;;;;;5048532;28;20203;-90
2022/01/27 13:21:26;;;;;;;18.83;10.43;;;4.10;99.90;;;;;;5044263;28;20170;-91
2022/01/27 13:24:02;;;;;;;15.90;8.90;;;4.10;99.90;;;;;;5053614;28;20180;-90
2022/01/27 13:26:29;;;;;;;16.87;8.47;;;4.10;99.90;;;;;;5039359;28;20181;-91
2022/01/27 13:28:58;;;;;;;17.53;9.43;;;4.00;99.90;;;;;;5055010;28;20210;-90
2022/01/27 13:31:26;;;;;;;16.90;9.37;;;4.00;99.90;;;;;;5054397;28;20190;-90
2022/01/27 13:33:53;;;;;;;17.60;9.63;;;4.00;99.90;;;;;;5051732;28;20707;-89